createdAt,value
2022-08-17T00:02:27.271Z,22.50
2022-08-17T00:05:32.354Z,22.40
2022-08-17T00:08:38.264Z,22.40
2022-08-17T00:12:42.703Z,22.40
2022-08-17T00:15:10.484Z,22.30
2022-08-17T00:19:06.952Z,22.30
2022-08-17T00:21:44.710Z,22.20
2022-08-17T00:25:12.041Z,22.10
2022-08-17T00:28:17.303Z,22.00
2022-08-17T00:31:20.566Z,22.00
2022-08-17T00:34:25.253Z,21.90
2022-08-17T00:37:30.924Z,21.90
2022-08-17T00:40:40.696Z,21.90
2022-08-17T00:43:51.392Z,21.90
2022-08-17T00:46:54.461Z,21.90
2022-08-17T00:49:57.444Z,21.90
2022-08-17T00:53:00.582Z,21.80
2022-08-17T00:56:08.079Z,21.80
2022-08-17T00:59:16.941Z,21.80
2022-08-17T01:02:20.336Z,21.80
2022-08-17T01:05:30.506Z,21.80
2022-08-17T01:08:34.010Z,21.70
2022-08-17T01:11:37.176Z,21.70
2022-08-17T01:14:41.941Z,21.70
2022-08-17T01:17:46.045Z,21.70
2022-08-17T01:20:51.865Z,21.70
2022-08-17T01:23:57.368Z,21.60
2022-08-17T01:27:00.399Z,21.60
2022-08-17T01:30:57.108Z,21.60
2022-08-17T01:33:31.286Z,21.60
2022-08-17T01:36:34.360Z,21.60
2022-08-17T01:39:42.119Z,21.50
2022-08-17T01:42:49.614Z,21.50
2022-08-17T01:46:02.828Z,21.50
2022-08-17T01:49:08.843Z,21.50
2022-08-17T01:52:13.546Z,21.40
2022-08-17T01:55:25.877Z,21.40
2022-08-17T01:58:30.729Z,21.40
2022-08-17T02:01:34.888Z,21.40
2022-08-17T02:04:37.970Z,21.40
2022-08-17T02:07:59.879Z,21.30
2022-08-17T02:11:11.205Z,21.30
2022-08-17T02:14:15.596Z,21.20
2022-08-17T02:17:18.680Z,21.20
2022-08-17T02:20:41.316Z,21.20
2022-08-17T02:23:48.499Z,21.20
2022-08-17T02:26:52.916Z,21.10
2022-08-17T02:29:55.915Z,21.10
2022-08-17T02:32:58.991Z,21.00
2022-08-17T02:36:08.898Z,21.00
2022-08-17T02:39:15.549Z,21.00
2022-08-17T02:42:19.880Z,21.00
2022-08-17T02:45:25.177Z,21.00
2022-08-17T02:48:31.485Z,21.00
2022-08-17T02:51:35.245Z,21.00
2022-08-17T02:54:41.607Z,21.00
2022-08-17T02:57:46.788Z,20.90
2022-08-17T03:00:49.829Z,20.90
2022-08-17T03:03:52.860Z,20.80
2022-08-17T03:06:56.129Z,20.80
2022-08-17T03:10:00.097Z,20.80
2022-08-17T03:13:05.549Z,20.80
2022-08-17T03:16:09.091Z,20.80
2022-08-17T03:19:12.550Z,20.80
2022-08-17T03:22:46.541Z,20.80
2022-08-17T03:25:41.124Z,20.70
2022-08-17T03:28:47.823Z,20.70
2022-08-17T03:31:51.315Z,20.70
2022-08-17T03:35:00.081Z,20.70
2022-08-17T03:38:04.196Z,20.70
2022-08-17T03:41:07.742Z,20.70
2022-08-17T03:44:12.073Z,20.70
2022-08-17T03:47:32.575Z,20.80
2022-08-17T03:50:52.958Z,20.70
2022-08-17T03:54:15.499Z,20.70
2022-08-17T03:57:19.246Z,20.60
2022-08-17T04:00:23.746Z,20.60
2022-08-17T04:03:26.787Z,20.60
2022-08-17T04:06:29.810Z,20.60
2022-08-17T04:09:33.019Z,20.60
2022-08-17T04:12:46.580Z,20.60
2022-08-17T04:15:51.027Z,20.50
2022-08-17T04:18:54.800Z,20.50
2022-08-17T04:21:58.700Z,20.50
2022-08-17T04:25:04.957Z,20.50
2022-08-17T04:28:09.448Z,20.50
2022-08-17T04:31:20.260Z,20.50
2022-08-17T04:34:25.061Z,20.50
2022-08-17T04:37:28.068Z,20.50
2022-08-17T04:40:48.507Z,20.40
2022-08-17T04:43:55.933Z,20.50
2022-08-17T04:47:00.342Z,20.50
2022-08-17T04:50:04.033Z,20.50
2022-08-17T04:53:07.071Z,20.50
2022-08-17T04:56:17.082Z,20.50
2022-08-17T04:59:23.382Z,20.60
2022-08-17T05:02:27.708Z,20.60
2022-08-17T05:05:33.080Z,20.60
2022-08-17T05:08:36.579Z,20.70
2022-08-17T05:11:39.864Z,20.70
2022-08-17T05:14:48.078Z,20.80
2022-08-17T05:17:52.403Z,20.80
2022-08-17T05:20:56.274Z,20.90
2022-08-17T05:24:00.155Z,21.00
2022-08-17T05:27:06.595Z,21.10
2022-08-17T05:30:10.358Z,21.20
2022-08-17T05:33:17.530Z,21.30
2022-08-17T05:36:43.123Z,21.40
2022-08-17T05:39:43.548Z,21.50
2022-08-17T05:42:46.641Z,21.80
2022-08-17T05:45:58.445Z,22.10
2022-08-17T05:49:05.804Z,22.50
2022-08-17T05:52:21.614Z,22.80
2022-08-17T05:55:31.694Z,23.10
2022-08-17T05:58:48.103Z,23.30
2022-08-17T06:01:58.143Z,23.50
2022-08-17T06:05:17.764Z,23.70
2022-08-17T06:08:27.948Z,24.00
2022-08-17T06:11:39.841Z,24.00
2022-08-17T06:14:55.851Z,23.90
2022-08-17T06:18:03.094Z,23.90
2022-08-17T06:21:12.505Z,23.80
2022-08-17T06:24:29.608Z,23.90
2022-08-17T06:27:36.602Z,24.00
2022-08-17T06:30:59.873Z,23.90
2022-08-17T06:34:08.060Z,23.70
2022-08-17T06:37:25.023Z,23.60
2022-08-17T06:40:46.353Z,23.60
2022-08-17T06:44:04.193Z,23.60
2022-08-17T06:47:13.501Z,23.60
2022-08-17T06:50:20.836Z,23.70
2022-08-17T06:53:28.047Z,23.80
2022-08-17T06:56:52.921Z,23.80
2022-08-17T07:00:02.706Z,23.90
2022-08-17T07:03:15.744Z,23.90
2022-08-17T07:06:21.648Z,23.90
2022-08-17T07:09:31.587Z,23.90
2022-08-17T07:12:40.008Z,24.00
2022-08-17T07:15:46.380Z,24.10
2022-08-17T07:18:51.608Z,24.20
2022-08-17T07:22:04.595Z,24.30
2022-08-17T07:25:11.088Z,24.50
2022-08-17T07:28:23.491Z,25.00
2022-08-17T07:31:30.414Z,25.30
2022-08-17T07:35:10.626Z,25.50
2022-08-17T07:38:25.330Z,25.60
2022-08-17T07:41:53.069Z,25.80
2022-08-17T07:45:19.515Z,26.00
2022-08-17T07:48:24.147Z,26.10
2022-08-17T07:51:31.204Z,26.20
2022-08-17T07:54:36.811Z,26.30
2022-08-17T07:57:41.187Z,26.50
2022-08-17T08:00:44.277Z,26.70
2022-08-17T08:03:52.380Z,27.00
2022-08-17T08:06:58.821Z,27.10
2022-08-17T08:10:07.371Z,26.80
2022-08-17T08:13:14.843Z,26.90
2022-08-17T08:16:25.720Z,26.80
2022-08-17T08:19:30.152Z,26.80
2022-08-17T08:22:44.159Z,26.90
2022-08-17T08:25:56.678Z,27.00
2022-08-17T08:29:09.225Z,27.00
2022-08-17T08:32:20.914Z,27.10
2022-08-17T08:35:30.944Z,27.10
2022-08-17T08:38:45.740Z,27.20
2022-08-17T08:41:57.005Z,27.40
2022-08-17T08:45:13.570Z,27.70
2022-08-17T08:48:56.395Z,28.00
2022-08-17T08:52:03.348Z,28.00
2022-08-17T08:55:13.273Z,28.00
2022-08-17T08:58:31.991Z,28.00
2022-08-17T09:01:53.751Z,28.00
2022-08-17T09:05:14.242Z,27.90
2022-08-17T09:08:25.710Z,27.90
2022-08-17T09:12:01.474Z,27.90
2022-08-17T09:15:12.310Z,27.90
2022-08-17T09:19:00.247Z,28.00
2022-08-17T09:21:48.966Z,28.10
2022-08-17T09:24:57.034Z,28.20
2022-08-17T09:28:03.685Z,28.30
2022-08-17T09:31:11.035Z,28.30
2022-08-17T09:34:18.368Z,28.30
2022-08-17T09:37:28.242Z,28.40
2022-08-17T09:40:36.308Z,28.50
2022-08-17T09:43:44.195Z,28.60
2022-08-17T09:46:54.342Z,28.60
2022-08-17T09:50:04.563Z,28.60
2022-08-17T09:53:08.704Z,28.80
2022-08-17T09:56:33.043Z,28.80
2022-08-17T09:59:48.563Z,28.90
2022-08-17T10:03:20.800Z,29.00
2022-08-17T10:06:30.753Z,29.10
2022-08-17T10:09:45.471Z,29.20
2022-08-17T10:12:53.263Z,29.30
2022-08-17T10:16:04.277Z,29.50
2022-08-17T10:19:15.972Z,29.70
2022-08-17T10:22:44.288Z,30.00
2022-08-17T10:26:08.801Z,30.30
2022-08-17T10:29:17.388Z,30.50
2022-08-17T10:32:32.078Z,30.50
2022-08-17T10:35:43.978Z,30.50
2022-08-17T10:38:50.594Z,30.50
2022-08-17T10:41:58.751Z,30.60
2022-08-17T10:45:07.828Z,30.50
2022-08-17T10:48:29.911Z,30.40
2022-08-17T10:51:38.824Z,30.10
2022-08-17T10:54:50.021Z,30.10
2022-08-17T10:57:54.770Z,30.00
2022-08-17T11:00:59.528Z,30.00
2022-08-17T11:04:21.208Z,30.00
2022-08-17T11:07:41.068Z,30.00
2022-08-17T11:11:07.556Z,29.90
2022-08-17T11:14:28.220Z,29.90
2022-08-17T11:17:49.711Z,29.80
2022-08-17T11:21:31.823Z,29.70
2022-08-17T11:24:38.294Z,29.70
2022-08-17T11:27:43.952Z,29.90
2022-08-17T11:30:51.268Z,29.80
2022-08-17T11:33:59.116Z,29.80
2022-08-17T11:37:19.272Z,29.80
2022-08-17T11:40:43.170Z,29.90
2022-08-17T11:44:05.712Z,29.90
2022-08-17T11:47:36.470Z,29.90
2022-08-17T11:51:06.615Z,30.00
2022-08-17T11:54:32.230Z,30.00
2022-08-17T11:58:07.187Z,30.10
2022-08-17T12:01:16.027Z,30.00
2022-08-17T12:04:25.821Z,30.00
2022-08-17T12:07:32.155Z,29.90
2022-08-17T12:10:37.883Z,29.90
2022-08-17T12:13:46.526Z,29.90
2022-08-17T12:17:02.191Z,30.00
2022-08-17T12:20:23.994Z,30.00
2022-08-17T12:23:36.861Z,30.10
2022-08-17T12:26:40.676Z,30.10
2022-08-17T12:29:45.275Z,30.20
2022-08-17T12:32:50.078Z,30.20
2022-08-17T12:35:59.641Z,30.30
2022-08-17T12:39:12.860Z,30.30
2022-08-17T12:42:24.595Z,30.00
2022-08-17T12:45:30.330Z,30.00
2022-08-17T12:48:36.705Z,29.90
2022-08-17T12:51:44.972Z,29.80
2022-08-17T12:54:59.390Z,29.70
2022-08-17T12:58:03.084Z,29.60
2022-08-17T13:01:09.171Z,29.50
2022-08-17T13:04:16.767Z,29.40
2022-08-17T13:07:32.059Z,29.40
2022-08-17T13:10:37.959Z,29.30
2022-08-17T13:13:43.727Z,29.40
2022-08-17T13:16:53.194Z,29.30
2022-08-17T13:19:58.241Z,29.20
2022-08-17T13:23:09.981Z,29.20
2022-08-17T13:26:16.953Z,29.20
2022-08-17T13:29:24.682Z,29.20
2022-08-17T13:32:44.090Z,29.20
2022-08-17T13:35:51.413Z,29.10
2022-08-17T13:39:08.292Z,29.00
2022-08-17T13:42:34.915Z,29.10
2022-08-17T13:46:09.318Z,29.00
2022-08-17T13:49:12.828Z,29.00
2022-08-17T13:52:38.663Z,29.00
2022-08-17T13:55:49.665Z,28.90
2022-08-17T13:58:55.310Z,28.90
2022-08-17T14:01:59.452Z,28.90
2022-08-17T14:05:03.117Z,28.90
2022-08-17T14:08:14.156Z,28.90
2022-08-17T14:11:18.368Z,28.90
2022-08-17T14:14:23.101Z,28.90
2022-08-17T14:17:28.742Z,29.00
2022-08-17T14:20:31.963Z,29.00
2022-08-17T14:23:37.095Z,29.00
2022-08-17T14:26:40.148Z,29.00
2022-08-17T14:29:43.779Z,29.00
2022-08-17T14:32:48.532Z,28.90
2022-08-17T14:35:53.476Z,28.90
2022-08-17T14:38:57.856Z,28.90
2022-08-17T14:42:02.116Z,28.90
2022-08-17T14:45:06.341Z,28.90
2022-08-17T14:48:30.163Z,28.90
2022-08-17T14:51:33.167Z,28.90
2022-08-17T14:54:40.195Z,28.90
2022-08-17T14:57:45.775Z,28.90
2022-08-17T15:00:50.883Z,28.90
2022-08-17T15:03:54.564Z,28.90
2022-08-17T15:06:58.255Z,28.90
2022-08-17T15:10:03.036Z,29.00
2022-08-17T15:13:11.283Z,29.00
2022-08-17T15:16:14.588Z,28.90
2022-08-17T15:19:17.818Z,28.90
2022-08-17T15:22:27.002Z,28.80
2022-08-17T15:25:34.466Z,28.80
2022-08-17T15:28:37.670Z,28.70
2022-08-17T15:31:40.680Z,28.60
2022-08-17T15:34:43.681Z,28.60
2022-08-17T15:37:46.717Z,28.60
2022-08-17T15:40:52.422Z,28.60
2022-08-17T15:43:55.992Z,28.60
2022-08-17T15:46:58.998Z,28.60
2022-08-17T15:50:02.055Z,28.60
2022-08-17T15:53:05.253Z,28.60
2022-08-17T15:56:10.196Z,28.60
2022-08-17T15:59:13.398Z,28.70
2022-08-17T16:03:14.013Z,28.70
2022-08-17T16:05:50.172Z,28.70
2022-08-17T16:08:54.310Z,28.70
2022-08-17T16:11:58.697Z,28.70
2022-08-17T16:15:02.627Z,28.70
2022-08-17T16:18:06.056Z,28.60
2022-08-17T16:21:42.908Z,28.60
2022-08-17T16:24:56.749Z,28.50
2022-08-17T16:28:01.719Z,28.50
2022-08-17T16:31:08.164Z,28.40
2022-08-17T16:34:17.549Z,28.30
2022-08-17T16:37:21.556Z,28.30
2022-08-17T16:40:26.948Z,28.30
2022-08-17T16:43:31.538Z,28.30
2022-08-17T16:46:34.554Z,28.20
2022-08-17T16:49:38.263Z,28.20
2022-08-17T16:52:41.853Z,28.10
2022-08-17T16:55:45.555Z,28.10
2022-08-17T16:58:50.123Z,28.10
2022-08-17T17:01:54.265Z,28.00
2022-08-17T17:05:04.611Z,28.00
2022-08-17T17:08:12.689Z,28.00
2022-08-17T17:11:25.803Z,27.90
2022-08-17T17:14:36.595Z,27.90
2022-08-17T17:17:40.750Z,27.90
2022-08-17T17:20:50.559Z,27.80
2022-08-17T17:23:57.535Z,27.80
2022-08-17T17:27:13.487Z,27.80
2022-08-17T17:30:21.599Z,27.70
2022-08-17T17:33:34.804Z,27.60
2022-08-17T17:36:45.286Z,27.40
2022-08-17T17:39:53.163Z,27.30
2022-08-17T17:43:14.331Z,27.30
2022-08-17T17:46:29.442Z,27.20
2022-08-17T17:49:37.042Z,27.10
2022-08-17T17:52:47.986Z,27.10
2022-08-17T17:56:09.764Z,27.00
2022-08-17T17:59:44.057Z,27.00
2022-08-17T18:03:07.633Z,26.90
2022-08-17T18:06:30.147Z,26.90
2022-08-17T18:09:54.838Z,26.80
2022-08-17T18:13:14.147Z,26.70
2022-08-17T18:16:19.128Z,26.60
2022-08-17T18:19:26.372Z,26.60
2022-08-17T18:22:30.971Z,26.60
2022-08-17T18:25:44.453Z,26.50
2022-08-17T18:28:51.763Z,26.50
2022-08-17T18:32:13.236Z,26.50
2022-08-17T18:35:35.144Z,26.40
2022-08-17T18:38:40.329Z,26.20
2022-08-17T18:41:45.095Z,26.10
2022-08-17T18:44:50.608Z,25.80
2022-08-17T18:47:57.425Z,25.80
2022-08-17T18:51:05.854Z,25.60
2022-08-17T18:54:15.957Z,25.20
2022-08-17T18:57:32.380Z,23.30
2022-08-17T19:00:38.300Z,22.60
2022-08-17T19:03:44.105Z,22.10
2022-08-17T19:07:04.732Z,22.00
2022-08-17T19:10:20.795Z,21.50
2022-08-17T19:13:30.262Z,21.60
2022-08-17T19:16:39.252Z,21.50
2022-08-17T19:19:51.068Z,21.60
2022-08-17T19:23:17.573Z,21.70
2022-08-17T19:26:53.977Z,21.70
2022-08-17T19:29:54.759Z,21.70
2022-08-17T19:32:58.430Z,21.60
2022-08-17T19:36:08.572Z,21.60
2022-08-17T19:39:20.126Z,21.60
2022-08-17T19:42:33.877Z,21.50
2022-08-17T19:45:56.001Z,21.50
2022-08-17T19:49:07.061Z,21.40
2022-08-17T19:52:31.342Z,21.30
2022-08-17T19:55:48.446Z,21.30
2022-08-17T19:58:58.919Z,21.30
2022-08-17T20:02:15.551Z,21.30
2022-08-17T20:05:23.688Z,21.40
2022-08-17T20:08:30.600Z,21.30
2022-08-17T20:11:41.283Z,21.30
2022-08-17T20:14:51.704Z,21.30
2022-08-17T20:18:00.749Z,21.30
2022-08-17T20:21:20.325Z,21.30
2022-08-17T20:24:35.854Z,21.30
2022-08-17T20:27:52.030Z,21.20
2022-08-17T20:30:55.571Z,21.30
2022-08-17T20:34:37.360Z,21.30
2022-08-17T20:37:44.751Z,21.30
2022-08-17T20:41:11.842Z,21.20
2022-08-17T20:44:32.651Z,21.20
2022-08-17T20:48:00.743Z,21.20
2022-08-17T20:51:19.770Z,21.30
2022-08-17T20:54:46.041Z,21.30
2022-08-17T20:57:49.550Z,21.30
2022-08-17T21:01:14.662Z,21.30
2022-08-17T21:04:45.482Z,21.20
2022-08-17T21:07:57.951Z,21.30
2022-08-17T21:11:15.878Z,21.30
2022-08-17T21:14:32.484Z,21.30
2022-08-17T21:17:44.368Z,21.30
2022-08-17T21:21:04.379Z,21.30
2022-08-17T21:24:25.132Z,21.30
2022-08-17T21:27:37.682Z,21.30
2022-08-17T21:30:48.002Z,21.30
2022-08-17T21:34:28.019Z,21.30
2022-08-17T21:37:39.140Z,21.30
2022-08-17T21:40:46.935Z,21.20
2022-08-17T21:43:52.443Z,21.20
2022-08-17T21:46:55.428Z,21.30
2022-08-17T21:50:18.687Z,21.30
2022-08-17T21:53:29.388Z,21.20
2022-08-17T21:56:41.400Z,21.20
2022-08-17T21:59:45.118Z,21.20
2022-08-17T22:02:55.393Z,21.20
2022-08-17T22:05:59.744Z,21.10
2022-08-17T22:09:13.228Z,21.20
2022-08-17T22:12:18.382Z,21.30
2022-08-17T22:15:21.476Z,21.30
2022-08-17T22:18:28.809Z,21.30
2022-08-17T22:21:33.172Z,21.20
2022-08-17T22:24:36.839Z,21.30
2022-08-17T22:27:49.678Z,21.30
2022-08-17T22:31:02.044Z,21.30
2022-08-17T22:34:13.611Z,21.20
2022-08-17T22:37:29.771Z,21.20
2022-08-17T22:40:35.181Z,21.30
2022-08-17T22:43:39.420Z,21.30
2022-08-17T22:46:57.067Z,21.30
2022-08-17T22:50:02.554Z,21.20
2022-08-17T22:53:34.006Z,21.20
2022-08-17T22:56:55.382Z,21.10
2022-08-17T22:59:58.470Z,21.10
2022-08-17T23:03:17.857Z,21.10
2022-08-17T23:06:21.006Z,21.10
2022-08-17T23:09:25.380Z,21.10
2022-08-17T23:12:28.598Z,21.00
2022-08-17T23:15:33.889Z,21.00
2022-08-17T23:18:37.336Z,20.90
2022-08-17T23:21:41.073Z,20.90
2022-08-17T23:24:48.940Z,20.70
2022-08-17T23:27:52.175Z,20.60
2022-08-17T23:30:56.351Z,20.60
2022-08-17T23:33:59.610Z,20.70
2022-08-17T23:37:04.251Z,20.70
2022-08-17T23:40:10.015Z,20.60
2022-08-17T23:43:24.094Z,20.70
2022-08-17T23:46:28.443Z,20.60
2022-08-17T23:49:32.199Z,20.60
2022-08-17T23:52:37.831Z,20.60
2022-08-17T23:55:42.176Z,20.60
2022-08-17T23:58:45.690Z,20.60
